createdAt,value
2023-03-22T00:00:55.923Z,14.23
2023-03-22T00:01:57.846Z,14.07
2023-03-22T00:02:59.408Z,14.02
2023-03-22T00:04:01.215Z,14.01
2023-03-22T00:05:02.897Z,14.01
2023-03-22T00:06:04.635Z,13.97
2023-03-22T00:07:06.479Z,13.91
2023-03-22T00:08:08.645Z,13.86
2023-03-22T00:09:10.180Z,13.94
2023-03-22T00:10:11.689Z,13.95
2023-03-22T00:11:13.258Z,13.81
2023-03-22T00:12:14.801Z,13.83
2023-03-22T00:13:16.363Z,14.01
2023-03-22T00:14:18.404Z,14.00
2023-03-22T00:15:20.040Z,14.00
2023-03-22T00:16:21.787Z,13.83
2023-03-22T00:17:25.802Z,13.55
2023-03-22T00:18:27.435Z,13.58
2023-03-22T00:19:29.215Z,13.82
2023-03-22T00:20:30.786Z,13.87
2023-03-22T00:21:32.658Z,13.91
2023-03-22T00:22:34.162Z,13.73
2023-03-22T00:23:35.730Z,13.69
2023-03-22T00:24:37.692Z,13.67
2023-03-22T00:25:39.378Z,13.62
2023-03-22T00:26:41.229Z,13.68
2023-03-22T00:27:42.868Z,13.63
2023-03-22T00:28:44.376Z,13.72
2023-03-22T00:29:45.976Z,13.77
2023-03-22T00:30:58.657Z,13.78
2023-03-22T00:32:00.650Z,13.82
2023-03-22T00:33:02.199Z,13.72
2023-03-22T00:34:03.718Z,13.59
2023-03-22T00:35:05.865Z,13.43
2023-03-22T00:36:09.038Z,13.45
2023-03-22T00:37:10.894Z,13.41
2023-03-22T00:38:14.315Z,13.42
2023-03-22T00:39:16.013Z,13.38
2023-03-22T00:40:18.395Z,13.42
2023-03-22T00:41:22.716Z,13.38
2023-03-22T00:42:24.239Z,13.40
2023-03-22T00:43:25.785Z,13.44
2023-03-22T00:44:27.339Z,13.48
2023-03-22T00:45:28.941Z,13.48
2023-03-22T00:46:30.541Z,13.52
2023-03-22T00:47:32.197Z,13.57
2023-03-22T00:48:33.706Z,13.62
2023-03-22T00:49:36.403Z,13.68
2023-03-22T00:50:38.781Z,13.61
2023-03-22T00:51:40.758Z,13.73
2023-03-22T00:52:42.265Z,13.59
2023-03-22T00:53:43.993Z,13.67
2023-03-22T00:54:45.667Z,13.67
2023-03-22T00:55:47.186Z,13.64
2023-03-22T00:56:50.197Z,13.69
2023-03-22T00:57:51.714Z,13.72
2023-03-22T00:58:53.243Z,13.70
2023-03-22T00:59:55.895Z,13.66
2023-03-22T01:00:57.488Z,13.67
2023-03-22T01:01:59.129Z,13.64
2023-03-22T01:03:04.648Z,13.63
2023-03-22T01:04:06.236Z,13.37
2023-03-22T01:05:08.102Z,13.34
2023-03-22T01:06:10.290Z,13.18
2023-03-22T01:07:17.969Z,13.23
2023-03-22T01:08:19.469Z,13.22
2023-03-22T01:09:23.927Z,13.15
2023-03-22T01:10:25.485Z,12.99
2023-03-22T01:11:27.132Z,12.92
2023-03-22T01:12:28.660Z,13.02
2023-03-22T01:13:30.314Z,13.02
2023-03-22T01:14:31.897Z,13.04
2023-03-22T01:15:33.531Z,13.14
2023-03-22T01:16:36.283Z,13.20
2023-03-22T01:17:37.825Z,13.06
2023-03-22T01:18:39.341Z,12.93
2023-03-22T01:19:40.996Z,12.89
2023-03-22T01:20:42.612Z,13.03
2023-03-22T01:21:44.197Z,13.05
2023-03-22T01:22:46.107Z,12.86
2023-03-22T01:23:47.869Z,12.83
2023-03-22T01:24:50.123Z,12.84
2023-03-22T01:25:51.698Z,12.90
2023-03-22T01:26:53.208Z,12.93
2023-03-22T01:27:54.710Z,12.94
2023-03-22T01:28:56.406Z,12.97
2023-03-22T01:29:58.018Z,13.02
2023-03-22T01:31:02.767Z,13.03
2023-03-22T01:32:04.525Z,12.84
2023-03-22T01:33:07.636Z,13.02
2023-03-22T01:34:09.250Z,13.08
2023-03-22T01:35:10.950Z,12.99
2023-03-22T01:36:12.539Z,12.91
2023-03-22T01:37:14.381Z,12.74
2023-03-22T01:38:15.937Z,12.80
2023-03-22T01:39:17.540Z,12.70
2023-03-22T01:40:19.221Z,12.71
2023-03-22T01:41:21.188Z,12.69
2023-03-22T01:42:23.287Z,12.54
2023-03-22T01:43:24.796Z,12.60
2023-03-22T01:44:29.595Z,12.49
2023-03-22T01:45:41.327Z,12.43
2023-03-22T01:46:43.943Z,12.52
2023-03-22T01:47:53.601Z,12.46
2023-03-22T01:48:55.182Z,12.51
2023-03-22T01:49:56.746Z,12.47
2023-03-22T01:51:11.837Z,12.55
2023-03-22T01:52:13.630Z,12.56
2023-03-22T01:53:15.525Z,12.49
2023-03-22T01:54:20.975Z,12.45
2023-03-22T01:55:24.450Z,12.38
2023-03-22T01:56:28.543Z,12.31
2023-03-22T01:57:30.033Z,12.26
2023-03-22T01:58:32.672Z,12.13
2023-03-22T01:59:34.209Z,12.09
2023-03-22T02:00:35.905Z,12.04
2023-03-22T02:01:37.564Z,12.12
2023-03-22T02:02:39.350Z,12.17
2023-03-22T02:04:07.347Z,12.29
2023-03-22T02:05:09.590Z,12.32
2023-03-22T02:06:11.128Z,12.29
2023-03-22T02:07:15.346Z,12.10
2023-03-22T02:08:17.017Z,12.13
2023-03-22T02:09:22.318Z,12.20
2023-03-22T02:10:25.776Z,12.25
2023-03-22T02:12:07.851Z,12.42
2023-03-22T02:13:19.659Z,12.58
2023-03-22T02:14:33.432Z,12.57
2023-03-22T02:15:56.003Z,12.52
2023-03-22T02:17:26.183Z,12.63
2023-03-22T02:18:54.599Z,12.63
2023-03-22T02:20:25.379Z,12.48
2023-03-22T02:21:45.229Z,12.45
2023-03-22T02:23:03.430Z,12.42
2023-03-22T02:24:26.300Z,12.31
2023-03-22T02:25:47.189Z,12.16
2023-03-22T02:27:23.777Z,12.19
2023-03-22T02:28:47.386Z,12.22
2023-03-22T02:29:54.801Z,12.00
2023-03-22T02:31:08.790Z,11.93
2023-03-22T02:32:47.292Z,12.07
2023-03-22T02:34:18.387Z,12.11
2023-03-22T02:35:20.138Z,12.05
2023-03-22T02:36:30.905Z,11.90
2023-03-22T02:37:41.526Z,11.99
2023-03-22T02:38:53.923Z,11.99
2023-03-22T02:40:17.806Z,12.08
2023-03-22T02:41:51.513Z,11.95
2023-03-22T02:43:13.199Z,12.06
2023-03-22T02:44:14.595Z,12.02
2023-03-22T02:45:47.728Z,11.99
2023-03-22T02:46:55.164Z,11.88
2023-03-22T02:48:06.668Z,11.77
2023-03-22T02:49:23.657Z,11.83
2023-03-22T02:50:26.962Z,11.88
2023-03-22T02:51:48.210Z,11.87
2023-03-22T02:53:26.712Z,12.18
2023-03-22T02:54:45.290Z,12.23
2023-03-22T02:56:01.327Z,12.16
2023-03-22T02:57:11.989Z,12.22
2023-03-22T02:58:16.932Z,12.26
2023-03-22T02:59:18.536Z,12.21
2023-03-22T03:00:20.368Z,12.19
2023-03-22T03:01:25.720Z,12.17
2023-03-22T03:02:27.548Z,12.09
2023-03-22T03:03:30.125Z,12.05
2023-03-22T03:04:33.750Z,12.01
2023-03-22T03:05:35.247Z,11.83
2023-03-22T03:06:40.830Z,11.94
2023-03-22T03:07:44.004Z,12.08
2023-03-22T03:08:46.795Z,12.12
2023-03-22T03:09:48.310Z,12.17
2023-03-22T03:10:49.849Z,12.12
2023-03-22T03:11:52.969Z,12.10
2023-03-22T03:12:54.414Z,12.53
2023-03-22T03:13:56.254Z,12.38
2023-03-22T03:14:57.784Z,12.18
2023-03-22T03:15:59.733Z,11.96
2023-03-22T03:17:30.203Z,11.98
2023-03-22T03:18:39.072Z,11.98
2023-03-22T03:20:08.108Z,11.91
2023-03-22T03:21:34.742Z,11.99
2023-03-22T03:23:07.424Z,12.05
2023-03-22T03:25:10.800Z,12.15
2023-03-22T03:26:18.120Z,11.97
2023-03-22T03:27:50.200Z,11.75
2023-03-22T03:28:57.180Z,11.84
2023-03-22T03:30:24.551Z,11.88
2023-03-22T03:31:37.792Z,11.94
2023-03-22T03:32:54.018Z,11.97
2023-03-22T03:34:00.332Z,11.98
2023-03-22T03:35:06.104Z,11.80
2023-03-22T03:36:11.708Z,11.76
2023-03-22T03:37:18.764Z,11.79
2023-03-22T03:38:23.504Z,11.80
2023-03-22T03:39:25.748Z,11.80
2023-03-22T03:40:33.803Z,11.75
2023-03-22T03:41:35.417Z,11.80
2023-03-22T03:42:42.577Z,11.78
2023-03-22T03:43:44.125Z,11.79
2023-03-22T03:44:45.716Z,11.71
2023-03-22T03:45:47.283Z,11.47
2023-03-22T03:46:48.974Z,11.67
2023-03-22T03:47:57.037Z,11.82
2023-03-22T03:48:58.779Z,11.83
2023-03-22T03:50:00.390Z,11.92
2023-03-22T03:51:02.062Z,11.74
2023-03-22T03:52:04.036Z,11.89
2023-03-22T03:53:05.739Z,11.69
2023-03-22T03:54:07.328Z,11.62
2023-03-22T03:55:09.215Z,11.61
2023-03-22T03:56:10.844Z,11.63
2023-03-22T03:57:12.362Z,11.57
2023-03-22T03:58:16.097Z,11.50
2023-03-22T03:59:18.174Z,11.58
2023-03-22T04:00:19.754Z,11.50
2023-03-22T04:01:21.636Z,11.58
2023-03-22T04:02:23.358Z,11.60
2023-03-22T04:03:25.253Z,11.67
2023-03-22T04:04:27.821Z,11.72
2023-03-22T04:05:29.363Z,11.76
2023-03-22T04:06:34.644Z,11.60
2023-03-22T04:07:36.245Z,11.70
2023-03-22T04:08:37.757Z,11.65
2023-03-22T04:09:40.361Z,11.65
2023-03-22T04:10:41.953Z,11.54
2023-03-22T04:11:43.852Z,11.55
2023-03-22T04:12:45.366Z,11.52
2023-03-22T04:13:46.901Z,11.58
2023-03-22T04:14:48.412Z,11.52
2023-03-22T04:15:54.121Z,11.44
2023-03-22T04:16:55.897Z,11.50
2023-03-22T04:17:57.477Z,11.61
2023-03-22T04:18:58.976Z,11.64
2023-03-22T04:20:05.373Z,11.60
2023-03-22T04:21:08.032Z,11.63
2023-03-22T04:22:14.589Z,11.72
2023-03-22T04:23:16.209Z,11.57
2023-03-22T04:24:17.760Z,11.84
2023-03-22T04:25:19.616Z,11.86
2023-03-22T04:26:21.660Z,11.92
2023-03-22T04:27:23.159Z,11.94
2023-03-22T04:28:26.089Z,11.83
2023-03-22T04:29:32.141Z,12.21
2023-03-22T04:30:36.308Z,12.14
2023-03-22T04:31:39.409Z,11.96
2023-03-22T04:32:40.761Z,12.12
2023-03-22T04:33:46.866Z,12.28
2023-03-22T04:34:49.243Z,12.00
2023-03-22T04:35:56.832Z,11.82
2023-03-22T04:37:02.760Z,11.81
2023-03-22T04:38:04.280Z,11.78
2023-03-22T04:39:07.492Z,11.64
2023-03-22T04:40:10.002Z,11.50
2023-03-22T04:41:11.910Z,11.56
2023-03-22T04:42:13.427Z,11.64
2023-03-22T04:43:18.897Z,11.64
2023-03-22T04:44:20.446Z,11.75
2023-03-22T04:45:21.958Z,11.65
2023-03-22T04:46:24.120Z,11.76
2023-03-22T04:47:26.008Z,11.72
2023-03-22T04:48:29.529Z,11.84
2023-03-22T04:49:31.435Z,11.82
2023-03-22T04:50:33.261Z,11.70
2023-03-22T04:51:34.820Z,11.45
2023-03-22T04:52:36.328Z,11.47
2023-03-22T04:53:40.741Z,11.41
2023-03-22T04:54:42.221Z,11.39
2023-03-22T04:55:43.770Z,11.18
2023-03-22T04:56:45.298Z,11.37
2023-03-22T04:57:46.851Z,11.37
2023-03-22T04:58:48.362Z,11.35
2023-03-22T04:59:49.859Z,11.39
2023-03-22T05:00:53.158Z,11.39
2023-03-22T05:01:54.752Z,11.42
2023-03-22T05:02:57.286Z,11.41
2023-03-22T05:03:58.868Z,11.33
2023-03-22T05:05:00.413Z,11.35
2023-03-22T05:06:02.693Z,11.40
2023-03-22T05:07:04.177Z,11.47
2023-03-22T05:08:06.857Z,11.50
2023-03-22T05:09:08.743Z,11.48
2023-03-22T05:10:10.369Z,11.60
2023-03-22T05:11:24.512Z,11.50
2023-03-22T05:12:27.010Z,11.68
2023-03-22T05:13:28.486Z,11.70
2023-03-22T05:14:30.007Z,11.55
2023-03-22T05:15:32.868Z,11.34
2023-03-22T05:16:34.752Z,11.33
2023-03-22T05:17:36.373Z,11.30
2023-03-22T05:18:42.427Z,11.14
2023-03-22T05:19:44.091Z,11.17
2023-03-22T05:20:45.595Z,11.33
2023-03-22T05:21:47.114Z,11.40
2023-03-22T05:22:50.678Z,11.42
2023-03-22T05:23:52.204Z,11.31
2023-03-22T05:24:53.720Z,11.15
2023-03-22T05:25:58.226Z,11.14
2023-03-22T05:27:01.030Z,11.22
2023-03-22T05:28:03.178Z,11.36
2023-03-22T05:29:05.243Z,11.15
2023-03-22T05:30:07.474Z,10.92
2023-03-22T05:31:10.956Z,10.94
2023-03-22T05:32:12.617Z,10.92
2023-03-22T05:33:14.361Z,11.09
2023-03-22T05:34:15.941Z,11.22
2023-03-22T05:35:17.585Z,11.27
2023-03-22T05:36:20.124Z,11.34
2023-03-22T05:37:22.307Z,11.42
2023-03-22T05:38:24.641Z,11.50
2023-03-22T05:39:26.289Z,10.81
2023-03-22T05:40:28.009Z,11.02
2023-03-22T05:41:31.699Z,11.17
2023-03-22T05:42:33.233Z,11.31
2023-03-22T05:43:34.747Z,11.34
2023-03-22T05:44:36.367Z,11.40
2023-03-22T05:45:37.981Z,11.49
2023-03-22T05:46:39.559Z,11.63
2023-03-22T05:47:41.330Z,11.50
2023-03-22T05:48:42.888Z,11.57
2023-03-22T05:49:44.365Z,11.55
2023-03-22T05:50:46.372Z,11.45
2023-03-22T05:51:47.905Z,11.44
2023-03-22T05:52:49.773Z,11.60
2023-03-22T05:53:51.766Z,11.73
2023-03-22T05:54:53.266Z,11.69
2023-03-22T05:55:57.698Z,11.55
2023-03-22T05:56:59.229Z,11.62
2023-03-22T05:58:02.857Z,11.51
2023-03-22T05:59:04.854Z,11.47
2023-03-22T06:00:13.399Z,11.16
2023-03-22T06:01:17.581Z,11.46
2023-03-22T06:02:19.102Z,11.45
2023-03-22T06:03:20.765Z,11.40
2023-03-22T06:04:22.400Z,11.46
2023-03-22T06:05:23.972Z,11.39
2023-03-22T06:06:28.284Z,11.52
2023-03-22T06:07:29.850Z,11.63
2023-03-22T06:08:31.365Z,11.52
2023-03-22T06:09:33.031Z,11.67
2023-03-22T06:10:34.927Z,11.60
2023-03-22T06:11:36.487Z,11.72
2023-03-22T06:12:37.995Z,11.85
2023-03-22T06:13:39.519Z,11.78
2023-03-22T06:14:41.076Z,12.01
2023-03-22T06:15:42.938Z,12.06
2023-03-22T06:16:44.519Z,12.09
2023-03-22T06:17:46.272Z,12.20
2023-03-22T06:18:48.791Z,12.33
2023-03-22T06:19:53.026Z,12.30
2023-03-22T06:20:55.112Z,12.52
2023-03-22T06:21:56.597Z,12.66
2023-03-22T06:22:58.077Z,12.69
2023-03-22T06:23:59.815Z,12.80
2023-03-22T06:25:01.563Z,12.77
2023-03-22T06:26:03.175Z,12.83
2023-03-22T06:27:04.714Z,12.96
2023-03-22T06:28:08.597Z,13.09
2023-03-22T06:29:10.338Z,13.22
2023-03-22T06:30:12.057Z,13.10
2023-03-22T06:31:13.649Z,13.14
2023-03-22T06:32:15.357Z,13.35
2023-03-22T06:33:17.119Z,13.31
2023-03-22T06:34:18.651Z,13.50
2023-03-22T06:35:20.651Z,13.28
2023-03-22T06:36:22.170Z,13.78
2023-03-22T06:37:24.316Z,13.83
2023-03-22T06:38:25.849Z,13.91
2023-03-22T06:39:27.354Z,14.03
2023-03-22T06:40:29.248Z,14.14
2023-03-22T06:41:31.189Z,14.28
2023-03-22T06:42:33.773Z,14.39
2023-03-22T06:43:35.273Z,14.51
2023-03-22T06:44:36.795Z,14.49
2023-03-22T06:45:38.808Z,14.63
2023-03-22T06:46:40.420Z,14.58
2023-03-22T06:47:42.778Z,14.53
2023-03-22T06:48:44.338Z,14.69
2023-03-22T06:49:45.886Z,14.66
2023-03-22T06:50:47.760Z,14.78
2023-03-22T06:51:49.299Z,14.67
2023-03-22T06:52:50.954Z,14.69
2023-03-22T06:53:52.462Z,14.38
2023-03-22T06:54:53.955Z,14.45
2023-03-22T06:55:55.670Z,14.61
2023-03-22T06:56:57.178Z,14.71
2023-03-22T06:57:58.823Z,14.89
2023-03-22T06:59:00.406Z,15.18
2023-03-22T07:00:02.351Z,15.14
2023-03-22T07:01:04.037Z,15.05
2023-03-22T07:02:05.776Z,14.83
2023-03-22T07:03:07.387Z,14.63
2023-03-22T07:04:09.207Z,14.48
2023-03-22T07:05:11.616Z,14.38
2023-03-22T07:06:13.172Z,14.45
2023-03-22T07:07:14.695Z,14.30
2023-03-22T07:08:16.687Z,14.14
2023-03-22T07:09:18.178Z,14.13
2023-03-22T07:10:20.064Z,14.15
2023-03-22T07:11:21.593Z,14.29
2023-03-22T07:12:23.110Z,14.24
2023-03-22T07:13:24.806Z,14.23
2023-03-22T07:14:26.312Z,14.26
2023-03-22T07:15:27.838Z,14.30
2023-03-22T07:16:29.395Z,14.16
2023-03-22T07:17:30.952Z,14.19
2023-03-22T07:18:32.505Z,14.11
2023-03-22T07:19:34.443Z,14.23
2023-03-22T07:20:41.426Z,14.28
2023-03-22T07:21:43.058Z,14.13
2023-03-22T07:22:44.809Z,14.32
2023-03-22T07:23:46.374Z,14.41
2023-03-22T07:24:57.020Z,14.48
2023-03-22T07:26:00.680Z,14.34
2023-03-22T07:27:02.205Z,14.58
2023-03-22T07:28:03.872Z,14.73
2023-03-22T07:29:05.437Z,14.76
2023-03-22T07:30:09.656Z,15.22
2023-03-22T07:31:11.820Z,15.45
2023-03-22T07:32:14.076Z,15.68
2023-03-22T07:33:15.874Z,16.07
2023-03-22T07:34:17.502Z,16.30
2023-03-22T07:35:19.509Z,16.90
2023-03-22T07:36:23.892Z,17.41
2023-03-22T07:37:25.767Z,18.10
2023-03-22T07:38:27.349Z,18.77
2023-03-22T07:39:29.313Z,19.33
2023-03-22T07:40:31.292Z,20.09
2023-03-22T07:41:32.926Z,21.15
2023-03-22T07:42:34.843Z,22.29
2023-03-22T07:43:50.868Z,23.41
2023-03-22T07:44:55.096Z,25.00
2023-03-22T07:45:56.625Z,25.84
2023-03-22T07:46:58.145Z,26.99
2023-03-22T07:47:59.789Z,28.09
2023-03-22T07:49:01.516Z,28.59
2023-03-22T07:50:03.110Z,29.38
2023-03-22T07:51:05.210Z,30.11
2023-03-22T07:52:07.105Z,30.93
2023-03-22T07:53:09.380Z,31.10
2023-03-22T07:54:14.023Z,31.05
2023-03-22T07:55:19.662Z,32.07
2023-03-22T07:56:21.307Z,32.83
2023-03-22T07:57:22.812Z,33.73
2023-03-22T07:58:24.300Z,34.19
2023-03-22T07:59:26.139Z,34.44
2023-03-22T08:00:27.803Z,34.98
2023-03-22T08:01:29.356Z,35.27
2023-03-22T08:02:31.019Z,35.43
2023-03-22T08:03:32.843Z,35.17
2023-03-22T08:04:34.883Z,35.45
2023-03-22T08:05:36.381Z,35.86
2023-03-22T08:06:38.038Z,36.11
2023-03-22T08:07:39.596Z,36.23
2023-03-22T08:08:41.488Z,36.19
2023-03-22T08:09:43.350Z,35.25
2023-03-22T08:10:48.948Z,35.18
2023-03-22T08:11:50.466Z,35.24
2023-03-22T08:12:51.982Z,35.13
2023-03-22T08:13:54.489Z,35.46
2023-03-22T08:14:56.584Z,36.03
2023-03-22T08:15:58.172Z,36.35
2023-03-22T08:16:59.751Z,36.65
2023-03-22T08:18:01.285Z,36.68
2023-03-22T08:19:02.920Z,35.67
2023-03-22T08:20:09.095Z,34.66
2023-03-22T08:21:10.690Z,33.31
2023-03-22T08:22:12.311Z,32.02
2023-03-22T08:23:16.848Z,31.59
2023-03-22T08:24:18.558Z,32.13
2023-03-22T08:25:20.775Z,32.49
2023-03-22T08:26:23.258Z,32.79
2023-03-22T08:27:24.804Z,33.39
2023-03-22T08:28:26.441Z,34.29
2023-03-22T08:29:28.225Z,34.55
2023-03-22T08:30:29.739Z,34.48
2023-03-22T08:31:31.688Z,35.00
2023-03-22T08:32:33.547Z,35.43
2023-03-22T08:33:35.252Z,35.68
2023-03-22T08:34:38.250Z,35.52
2023-03-22T08:35:40.036Z,35.14
2023-03-22T08:36:41.779Z,34.55
2023-03-22T08:37:43.332Z,34.20
2023-03-22T08:38:45.401Z,33.93
2023-03-22T08:39:47.318Z,33.49
2023-03-22T08:40:48.868Z,32.70
2023-03-22T08:41:50.468Z,32.09
2023-03-22T08:42:51.990Z,31.85
2023-03-22T08:43:53.515Z,31.41
2023-03-22T08:44:55.364Z,31.52
2023-03-22T08:45:57.202Z,30.63
2023-03-22T08:46:58.812Z,30.22
2023-03-22T08:48:00.811Z,29.82
2023-03-22T08:49:02.740Z,29.32
2023-03-22T08:50:04.954Z,28.59
2023-03-22T08:51:06.767Z,28.01
2023-03-22T08:52:08.816Z,27.29
2023-03-22T08:53:11.151Z,26.68
2023-03-22T08:54:13.241Z,26.20
2023-03-22T08:55:17.425Z,25.71
2023-03-22T08:56:20.127Z,25.55
2023-03-22T08:57:23.820Z,25.20
2023-03-22T08:58:25.413Z,24.66
2023-03-22T08:59:26.997Z,23.57
2023-03-22T09:00:36.530Z,23.10
2023-03-22T09:01:47.646Z,22.32
2023-03-22T09:02:50.238Z,21.55
2023-03-22T09:03:51.886Z,21.24
2023-03-22T09:04:54.007Z,20.87
2023-03-22T09:05:55.585Z,20.83
2023-03-22T09:06:57.311Z,20.49
2023-03-22T09:08:05.867Z,20.31
2023-03-22T09:09:08.154Z,20.11
2023-03-22T09:10:09.804Z,20.00
2023-03-22T09:11:11.619Z,19.42
2023-03-22T09:12:13.250Z,19.68
2023-03-22T09:13:16.784Z,19.62
2023-03-22T09:14:18.719Z,19.64
2023-03-22T09:15:20.341Z,19.80
2023-03-22T09:16:22.099Z,20.36
2023-03-22T09:17:23.747Z,21.01
2023-03-22T09:18:25.348Z,21.49
2023-03-22T09:19:29.453Z,21.79
2023-03-22T09:20:30.972Z,21.51
2023-03-22T09:21:32.568Z,20.89
2023-03-22T09:22:34.214Z,20.58
2023-03-22T09:23:36.459Z,20.33
2023-03-22T09:24:38.471Z,20.24
2023-03-22T09:25:42.539Z,20.20
2023-03-22T09:26:44.889Z,19.57
2023-03-22T09:27:46.720Z,19.69
2023-03-22T09:28:48.465Z,19.59
2023-03-22T09:29:51.727Z,19.37
2023-03-22T09:30:53.336Z,19.55
2023-03-22T09:31:54.890Z,19.32
2023-03-22T09:32:56.408Z,19.35
2023-03-22T09:33:58.175Z,19.46
2023-03-22T09:34:59.724Z,18.97
2023-03-22T09:36:01.419Z,18.14
2023-03-22T09:37:04.122Z,17.74
2023-03-22T09:38:06.582Z,17.95
2023-03-22T09:39:10.430Z,17.61
2023-03-22T09:40:12.280Z,17.43
2023-03-22T09:41:32.080Z,17.76
2023-03-22T09:42:38.699Z,18.03
2023-03-22T09:43:42.473Z,17.72
2023-03-22T09:44:44.092Z,17.89
2023-03-22T09:45:49.797Z,18.08
2023-03-22T09:46:52.748Z,18.00
2023-03-22T09:47:55.100Z,17.88
2023-03-22T09:48:57.675Z,17.36
2023-03-22T09:50:04.815Z,17.08
2023-03-22T09:51:07.763Z,17.54
2023-03-22T09:52:14.054Z,17.71
2023-03-22T09:53:16.505Z,17.49
2023-03-22T09:54:38.588Z,17.40
2023-03-22T09:56:06.252Z,17.91
2023-03-22T09:57:26.192Z,17.99
2023-03-22T09:58:33.866Z,18.25
2023-03-22T09:59:40.049Z,18.07
2023-03-22T10:00:44.145Z,17.60
2023-03-22T10:01:49.022Z,17.01
2023-03-22T10:02:59.586Z,17.09
2023-03-22T10:04:29.826Z,17.57
2023-03-22T10:05:48.272Z,17.82
2023-03-22T10:06:51.333Z,17.84
2023-03-22T10:07:52.724Z,17.48
2023-03-22T10:09:03.210Z,17.89
2023-03-22T10:10:18.780Z,18.08
2023-03-22T10:11:46.246Z,18.06
2023-03-22T10:12:59.499Z,18.29
2023-03-22T10:14:07.609Z,18.11
2023-03-22T10:15:17.398Z,17.79
2023-03-22T10:16:28.388Z,17.51
2023-03-22T10:17:30.632Z,18.10
2023-03-22T10:18:37.083Z,18.55
2023-03-22T10:19:52.387Z,18.21
2023-03-22T10:21:01.828Z,18.28
2023-03-22T10:22:04.027Z,18.33
2023-03-22T10:23:07.610Z,18.14
2023-03-22T10:24:18.264Z,18.26
2023-03-22T10:25:21.714Z,17.98
2023-03-22T10:26:29.361Z,17.96
2023-03-22T10:27:30.933Z,18.68
2023-03-22T10:28:38.587Z,19.50
2023-03-22T10:29:40.991Z,20.13
2023-03-22T10:30:43.113Z,20.41
2023-03-22T10:31:45.962Z,20.54
2023-03-22T10:33:09.599Z,20.85
2023-03-22T10:34:21.455Z,20.48
2023-03-22T10:35:23.378Z,19.42
2023-03-22T10:36:27.544Z,19.87
2023-03-22T10:37:33.820Z,19.92
2023-03-22T10:38:37.342Z,20.41
2023-03-22T10:39:40.758Z,20.69
2023-03-22T10:40:42.251Z,20.92
2023-03-22T10:41:43.769Z,20.83
2023-03-22T10:42:48.540Z,21.12
2023-03-22T10:43:55.003Z,20.63
2023-03-22T10:45:01.201Z,20.39
2023-03-22T10:46:07.750Z,19.53
2023-03-22T10:47:11.335Z,19.76
2023-03-22T10:48:29.840Z,19.93
2023-03-22T10:49:36.930Z,19.85
2023-03-22T10:50:39.791Z,20.37
2023-03-22T10:51:45.249Z,20.69
2023-03-22T10:52:54.937Z,21.71
2023-03-22T10:53:58.177Z,23.01
2023-03-22T10:55:03.779Z,23.89
2023-03-22T10:56:06.590Z,24.95
2023-03-22T10:57:08.111Z,26.08
2023-03-22T10:58:14.533Z,27.76
2023-03-22T10:59:55.535Z,26.72
2023-03-22T11:00:59.734Z,25.67
2023-03-22T11:02:01.980Z,24.77
2023-03-22T11:03:05.487Z,23.87
2023-03-22T11:04:14.063Z,23.32
2023-03-22T11:05:25.847Z,22.90
2023-03-22T11:06:36.415Z,22.65
2023-03-22T11:07:45.780Z,22.19
2023-03-22T11:08:57.307Z,21.85
2023-03-22T11:10:01.525Z,21.37
2023-03-22T11:11:03.864Z,21.69
2023-03-22T11:12:05.498Z,21.64
2023-03-22T11:13:07.398Z,21.48
2023-03-22T11:14:14.570Z,21.44
2023-03-22T11:15:30.441Z,21.76
2023-03-22T11:16:32.154Z,22.28
2023-03-22T11:17:36.515Z,23.34
2023-03-22T11:18:38.027Z,24.54
2023-03-22T11:19:41.824Z,25.71
2023-03-22T11:21:04.480Z,27.82
2023-03-22T11:22:24.978Z,29.47
2023-03-22T11:23:27.381Z,30.76
2023-03-22T11:24:31.605Z,30.07
2023-03-22T11:25:35.252Z,28.45
2023-03-22T11:26:40.796Z,27.07
2023-03-22T11:27:54.489Z,26.42
2023-03-22T11:29:02.625Z,25.81
2023-03-22T11:30:23.096Z,25.44
2023-03-22T11:31:26.001Z,25.20
2023-03-22T11:32:33.003Z,24.93
2023-03-22T11:33:34.911Z,24.84
2023-03-22T11:34:36.843Z,24.77
2023-03-22T11:35:38.798Z,24.59
2023-03-22T11:37:55.309Z,23.29
2023-03-22T11:38:59.761Z,23.62
2023-03-22T11:40:02.374Z,22.88
2023-03-22T11:41:09.131Z,22.58
2023-03-22T11:42:16.050Z,22.94
2023-03-22T11:43:24.736Z,23.27
2023-03-22T11:44:26.519Z,24.03
2023-03-22T11:45:33.136Z,24.78
2023-03-22T11:46:34.775Z,24.85
2023-03-22T11:47:38.412Z,24.44
2023-03-22T11:48:40.880Z,24.21
2023-03-22T11:49:47.820Z,23.31
2023-03-22T11:50:49.897Z,23.03
2023-03-22T11:51:51.404Z,22.80
2023-03-22T11:52:53.983Z,21.66
2023-03-22T11:53:56.921Z,21.70
2023-03-22T11:54:58.939Z,21.84
2023-03-22T11:56:00.662Z,21.72
2023-03-22T11:57:05.823Z,21.25
2023-03-22T11:58:07.375Z,21.17
2023-03-22T11:59:16.664Z,21.18
2023-03-22T12:00:23.552Z,21.06
2023-03-22T12:01:34.583Z,21.02
2023-03-22T12:02:38.862Z,20.85
2023-03-22T12:03:40.698Z,20.93
2023-03-22T12:04:42.321Z,20.80
2023-03-22T12:05:44.682Z,20.35
2023-03-22T12:06:46.327Z,20.45
2023-03-22T12:07:49.354Z,20.30
2023-03-22T12:08:58.575Z,20.24
2023-03-22T12:10:00.527Z,20.46
2023-03-22T12:11:06.321Z,20.45
2023-03-22T12:12:31.803Z,20.61
2023-03-22T12:13:44.011Z,20.77
2023-03-22T12:14:52.446Z,20.90
2023-03-22T12:15:58.472Z,20.82
2023-03-22T12:17:01.414Z,20.43
2023-03-22T12:18:07.709Z,20.92
2023-03-22T12:19:28.232Z,21.00
2023-03-22T12:20:43.485Z,20.95
2023-03-22T12:21:45.285Z,20.57
2023-03-22T12:22:51.784Z,20.51
2023-03-22T12:23:53.325Z,20.57
2023-03-22T12:24:54.850Z,20.49
2023-03-22T12:26:12.522Z,20.49
2023-03-22T12:27:29.429Z,20.14
2023-03-22T12:28:42.132Z,20.17
2023-03-22T12:30:11.354Z,20.41
2023-03-22T12:31:24.325Z,20.63
2023-03-22T12:32:30.552Z,20.39
2023-03-22T12:33:38.532Z,19.87
2023-03-22T12:34:42.045Z,20.17
2023-03-22T12:35:44.668Z,20.47
2023-03-22T12:36:53.492Z,20.63
2023-03-22T12:37:56.837Z,20.78
2023-03-22T12:38:59.050Z,20.45
2023-03-22T12:40:07.767Z,20.70
2023-03-22T12:41:18.099Z,20.91
2023-03-22T12:42:30.827Z,20.84
2023-03-22T12:43:36.563Z,21.07
2023-03-22T12:44:40.789Z,21.05
2023-03-22T12:45:54.965Z,21.26
2023-03-22T12:47:19.038Z,21.29
2023-03-22T12:48:52.051Z,21.42
2023-03-22T12:50:04.264Z,21.45
2023-03-22T12:51:07.600Z,20.33
2023-03-22T12:52:29.721Z,20.60
2023-03-22T12:53:53.581Z,20.68
2023-03-22T12:54:55.222Z,20.30
2023-03-22T12:55:56.807Z,20.24
2023-03-22T12:56:58.838Z,20.31
2023-03-22T12:58:00.433Z,20.35
2023-03-22T12:59:03.766Z,20.45
2023-03-22T13:00:13.620Z,20.56
2023-03-22T13:01:33.222Z,20.31
2023-03-22T13:02:34.936Z,20.32
2023-03-22T13:03:47.010Z,20.40
2023-03-22T13:04:53.142Z,20.25
2023-03-22T13:06:05.922Z,20.73
2023-03-22T13:07:11.648Z,20.84
2023-03-22T13:08:13.433Z,20.39
2023-03-22T13:09:29.792Z,20.77
2023-03-22T13:10:35.004Z,21.03
2023-03-22T13:11:36.527Z,21.19
2023-03-22T13:12:38.279Z,21.20
2023-03-22T13:13:44.378Z,21.20
2023-03-22T13:14:58.007Z,21.12
2023-03-22T13:16:08.436Z,20.88
2023-03-22T13:17:10.559Z,20.89
2023-03-22T13:18:33.431Z,20.80
2023-03-22T13:19:36.206Z,20.88
2023-03-22T13:20:41.518Z,20.98
2023-03-22T13:21:43.541Z,20.82
2023-03-22T13:22:47.821Z,20.85
2023-03-22T13:23:52.874Z,20.74
2023-03-22T13:25:19.110Z,21.01
2023-03-22T13:26:21.617Z,20.56
2023-03-22T13:27:23.750Z,20.59
2023-03-22T13:28:29.556Z,20.73
2023-03-22T13:29:38.079Z,20.91
2023-03-22T13:30:55.874Z,21.02
2023-03-22T13:31:59.071Z,21.37
2023-03-22T13:33:24.854Z,21.57
2023-03-22T13:34:47.314Z,21.82
2023-03-22T13:35:51.115Z,21.95
2023-03-22T13:36:55.167Z,22.02
2023-03-22T13:38:02.873Z,22.14
2023-03-22T13:39:09.347Z,22.14
2023-03-22T13:40:54.683Z,22.60
2023-03-22T13:42:18.932Z,22.70
2023-03-22T13:43:43.330Z,22.62
2023-03-22T13:44:46.879Z,22.26
2023-03-22T13:46:09.706Z,22.37
2023-03-22T13:47:44.272Z,22.33
2023-03-22T13:48:48.987Z,22.51
2023-03-22T13:49:53.283Z,22.49
2023-03-22T13:50:54.779Z,22.38
2023-03-22T13:51:58.489Z,22.56
2023-03-22T13:53:04.061Z,22.30
2023-03-22T13:54:16.145Z,22.78
2023-03-22T13:55:37.506Z,23.18
2023-03-22T13:56:44.527Z,23.01
2023-03-22T13:57:48.125Z,23.18
2023-03-22T13:58:52.907Z,23.23
2023-03-22T14:00:29.386Z,23.31
2023-03-22T14:01:35.131Z,23.32
2023-03-22T14:02:36.801Z,23.33
2023-03-22T14:03:41.999Z,23.19